This is the latest recevied weather packets stored in our database for station/object IN3ISU-13. If no packets are shown the sender has not sent any weather packets the latest 10 day(s).
| Time | Temp. | Humidity | Pressure | Rain* | Wind** | Luminosity | Snow |
|---|---|---|---|---|---|---|---|
| 1788348602 | 27.22° C | 50% | 1019 hPa | 0 mm | - | - | - |
| 1788346803 | 26.67° C | 48% | 1019 hPa | 0 mm | - | - | - |
| 1788345003 | 26.11° C | 56% | 1019 hPa | 0 mm | - | - | - |
| 1788343202 | 25.56° C | 57% | 1020 hPa | 0 mm | - | - | - |
| 1788341402 | 23.33° C | 66% | 1020 hPa | 0 mm | - | - | - |
| 1788337803 | 22.78° C | 66% | 1021 hPa | 0 mm | - | - | - |
| 1788336002 | 22.22° C | 70% | 1022 hPa | 0 mm | - | - | - |
| 1788334202 | 21.67° C | 69% | 1022 hPa | 0 mm | - | - | - |
| 1788332402 | 21.11° C | 65% | 1022 hPa | 0 mm | - | - | - |
| 1788298202 | 21.11° C | 82% | 1022 hPa | 0 mm | - | - | - |
| 1788292802 | 21.11° C | 79% | 1021 hPa | 0 mm | - | - | - |
| 1788287402 | 22.22° C | 79% | 1020 hPa | 0 mm | - | - | - |
| 1788283802 | 24.44° C | 82% | 1019 hPa | 0 mm | - | - | - |
| 1788280202 | 26.67° C | 49% | 1019 hPa | 0 mm | - | - | - |
| 1788276603 | 26.67° C | 57% | 1019 hPa | 0 mm | - | - | - |
| 1788273002 | 28.89° C | 44% | 1018 hPa | 0 mm | - | - | - |
| 1788271202 | 28.89° C | 44% | 1018 hPa | 0 mm | - | - | - |
| 1788269402 | 28.89° C | 43% | 1019 hPa | 0 mm | - | - | - |
| 1788267602 | 28.33° C | 48% | 1019 hPa | 0 mm | - | - | - |
| 1788265801 | 28.33° C | 48% | 1018 hPa | 0 mm | - | - | - |
| 1788264002 | 27.78° C | 50% | 1019 hPa | 0 mm | - | - | - |
| 1788262202 | 26.67° C | 55% | 1019 hPa | 0 mm | - | - | - |
| 1788260402 | 25.56° C | 58% | 1020 hPa | 0 mm | - | - | - |
| 1788256801 | 24.44° C | 61% | 1020 hPa | 0 mm | - | - | - |
| 1788255002 | 23.89° C | 63% | 1020 hPa | 0 mm | - | - | - |
* Rain latest hour (hover to see other rain measurements)
** Current wind speed in m/s (hover to see current wind gust speed)